Etusivu
METAR-TAF:

METAR-TAF

Lentoasemat :

Bakersfield, Kalifornia, Yhdysvallat

Leveyspiiri: 35-26-01N, Pituuspiiri: 119-03-24W, korkeus merenpinnasta: 155 m

Tämänhetkinen sää

Tämä raportti tehtiin 23 minuuttia sitten, kello 16.54 UTC
Tuuli 5 kn pohjoisesta
Lämpötila 31°C
Kosteus 21%
Ilmanpaine 1013 hPa
Näkyvyys: 16.1 km
selkeää

METAR: KBFL 181654Z 01005KT 10SM CLR 31/06 A2990 RMK AO2 SLP116 T03110061

Aika: 10:17 (17:17 UTC)

Sääennuste

Tämä raportti tehtiin 5 tuntia ja 57 minuuttia sitten, kello 11.20 UTC
Ennuste voimassa 18. päivästä klo 12 UTC - 19. päivään klo 12 UTC
Tuuli 6 kn koillisesta
Näkyvyys: 10 km
selkeää
From 18. päivästä klo 2000 UTC
Tuuli 13 kn luoteesta puuskistuen 19 kn:hen
Näkyvyys: 10 km
selkeää
From 19. päivästä klo 0400 UTC
Tuuli 11 kn pohjoisen/luoteesta
Näkyvyys: 10 km
Hajanaisia pilviä 25000 ft:n korkeudessa

TAF: KBFL 181120Z 1812/1912 05006KT P6SM SKC FM182000 31013G19KT P6SM SKC FM190400 34011KT P6SM SCT250

Säähavainnot ja -ennusteet yli 4000 lentoasemalta (METAR- ja TAF-raportit).

Käytössä olevat sääasemat on merkitty karttaan keltaisilla ja punaisilla pisteillä.

Aseta hiiri pisteen päälle nähdäksesi sääaseman nimen.

Klikkaa sitten nähdäksesi säähavainnot ja -ennusteet.

Kartan vaihtaminen: klikkaa mustalla rastilla varustettuja vihreitä pisteitä, niin voit zoomata sisään; viivalla varustettua vihreää pistettä, niin voit zoomata ulos tai vihreitä nuolia, niin pääset viereisille kartoille.


METAR-TAF: